createdAt,value
2019-01-19T00:00:09.536Z,0.00
2019-01-19T00:01:03.294Z,0.00
2019-01-19T00:01:41.022Z,-0.10
2019-01-19T00:02:18.677Z,-0.10
2019-01-19T00:03:05.073Z,0.00
2019-01-19T00:03:48.640Z,0.00
2019-01-19T00:04:41.284Z,0.00
2019-01-19T00:05:21.469Z,0.10
2019-01-19T00:05:59.127Z,0.10
2019-01-19T00:06:39.298Z,0.10
2019-01-19T00:07:25.088Z,0.10
2019-01-19T00:08:14.867Z,0.10
2019-01-19T00:08:49.912Z,0.10
2019-01-19T00:09:33.588Z,0.10
2019-01-19T00:10:31.104Z,0.10
2019-01-19T00:11:29.534Z,0.10
2019-01-19T00:12:21.447Z,0.10
2019-01-19T00:13:10.911Z,0.10
2019-01-19T00:13:48.500Z,0.10
2019-01-19T00:14:24.360Z,0.10
2019-01-19T00:14:58.938Z,0.10
2019-01-19T00:15:36.569Z,0.10
2019-01-19T00:16:30.954Z,0.10
2019-01-19T00:17:23.393Z,0.10
2019-01-19T00:18:00.972Z,0.10
2019-01-19T00:18:44.241Z,0.00
2019-01-19T00:19:50.821Z,0.00
2019-01-19T00:21:00.043Z,0.00
2019-01-19T00:21:43.461Z,0.10
2019-01-19T00:22:32.990Z,0.00
2019-01-19T00:23:22.756Z,0.00
2019-01-19T00:24:24.289Z,0.00
2019-01-19T00:25:02.053Z,0.00
2019-01-19T00:26:07.668Z,0.00
2019-01-19T00:26:45.322Z,0.00
2019-01-19T00:27:41.705Z,0.00
2019-01-19T00:28:19.297Z,0.00
2019-01-19T00:29:27.326Z,0.00
2019-01-19T00:30:16.118Z,0.00
2019-01-19T00:31:08.074Z,0.00
2019-01-19T00:32:03.638Z,-0.10
2019-01-19T00:32:50.007Z,-0.10
2019-01-19T00:33:36.352Z,-0.10
2019-01-19T00:34:34.222Z,-0.10
2019-01-19T00:35:36.330Z,-0.10
2019-01-19T00:36:35.329Z,0.00
2019-01-19T00:37:13.076Z,-0.10
2019-01-19T00:37:50.664Z,-0.10
2019-01-19T00:38:34.018Z,0.00
2019-01-19T00:39:14.233Z,0.00
2019-01-19T00:39:57.178Z,0.00
2019-01-19T00:40:46.699Z,0.00
2019-01-19T00:41:41.779Z,0.10
2019-01-19T00:42:24.919Z,0.10
2019-01-19T00:43:00.776Z,0.10
2019-01-19T00:43:36.372Z,0.00
2019-01-19T00:44:22.960Z,0.00
2019-01-19T00:45:09.669Z,0.00
2019-01-19T00:45:56.100Z,-0.10
2019-01-19T00:46:56.248Z,-0.10
2019-01-19T00:47:52.014Z,0.00
2019-01-19T00:48:38.705Z,0.00
2019-01-19T00:49:16.221Z,0.00
2019-01-19T00:49:59.507Z,0.10
2019-01-19T00:50:48.684Z,0.10
2019-01-19T00:51:32.053Z,0.10
2019-01-19T00:52:21.196Z,0.10
2019-01-19T00:53:01.354Z,0.10
2019-01-19T00:53:50.383Z,0.10
2019-01-19T00:54:28.030Z,0.10
2019-01-19T00:55:22.035Z,0.10
2019-01-19T00:56:22.077Z,0.10
2019-01-19T00:56:59.660Z,0.10
2019-01-19T00:57:49.042Z,0.00
2019-01-19T00:58:41.775Z,0.00
2019-01-19T00:59:19.434Z,0.00
2019-01-19T00:59:54.398Z,0.00
2019-01-19T01:00:43.621Z,0.00
2019-01-19T01:01:33.351Z,0.10
2019-01-19T01:02:28.975Z,0.00
2019-01-19T01:03:09.760Z,0.10
2019-01-19T01:03:50.045Z,0.00
2019-01-19T01:04:42.225Z,0.10
2019-01-19T01:05:25.652Z,0.10
2019-01-19T01:06:03.358Z,0.00
2019-01-19T01:06:49.924Z,0.00
2019-01-19T01:07:42.314Z,0.00
2019-01-19T01:08:36.505Z,0.10
2019-01-19T01:09:26.121Z,0.00
2019-01-19T01:10:12.520Z,0.00
2019-01-19T01:10:58.729Z,-0.10
2019-01-19T01:11:42.096Z,-0.10
2019-01-19T01:12:47.612Z,-0.20
2019-01-19T01:13:34.183Z,-0.10
2019-01-19T01:14:32.874Z,-0.20
2019-01-19T01:15:16.315Z,-0.20
2019-01-19T01:15:57.232Z,-0.30
2019-01-19T01:16:46.539Z,-0.30
2019-01-19T01:17:24.193Z,-0.30
2019-01-19T01:18:01.782Z,-0.30
2019-01-19T01:18:48.413Z,-0.40
2019-01-19T01:19:43.886Z,-0.30
2019-01-19T01:20:50.243Z,-0.30
2019-01-19T01:21:39.689Z,-0.40
2019-01-19T01:22:38.163Z,-0.40
2019-01-19T01:23:42.948Z,-0.40
2019-01-19T01:24:26.108Z,-0.40
2019-01-19T01:25:06.324Z,-0.30
2019-01-19T01:25:52.443Z,-0.30
2019-01-19T01:26:39.015Z,-0.20
2019-01-19T01:27:19.204Z,-0.20
2019-01-19T01:27:59.420Z,-0.20
2019-01-19T01:28:51.808Z,-0.20
2019-01-19T01:29:44.242Z,-0.10
2019-01-19T01:30:33.809Z,-0.20
2019-01-19T01:31:11.503Z,-0.10
2019-01-19T01:31:57.977Z,-0.10
2019-01-19T01:32:43.955Z,-0.10
2019-01-19T01:33:27.204Z,-0.10
2019-01-19T01:34:13.826Z,-0.10
2019-01-19T01:35:11.128Z,-0.10
2019-01-19T01:36:06.675Z,-0.20
2019-01-19T01:36:49.837Z,-0.20
2019-01-19T01:37:39.154Z,-0.20
2019-01-19T01:38:28.938Z,-0.20
2019-01-19T01:39:15.410Z,-0.20
2019-01-19T01:39:59.251Z,-0.20
2019-01-19T01:40:55.940Z,-0.20
2019-01-19T01:41:45.429Z,-0.20
2019-01-19T01:42:25.965Z,-0.20
2019-01-19T01:43:03.561Z,-0.20
2019-01-19T01:43:47.065Z,-0.20
2019-01-19T01:44:27.105Z,-0.20
2019-01-19T01:45:13.332Z,-0.20
2019-01-19T01:46:15.064Z,-0.20
2019-01-19T01:47:09.419Z,-0.20
2019-01-19T01:47:49.670Z,-0.20
2019-01-19T01:48:36.201Z,-0.30
2019-01-19T01:49:25.512Z,-0.40
2019-01-19T01:50:03.164Z,-0.30
2019-01-19T01:50:43.650Z,-0.40
2019-01-19T01:51:29.981Z,-0.40
2019-01-19T01:52:16.033Z,-0.40
2019-01-19T01:53:07.913Z,-0.40
2019-01-19T01:53:45.519Z,-0.40
2019-01-19T01:54:37.960Z,-0.40
2019-01-19T01:55:15.564Z,-0.40
2019-01-19T01:55:50.210Z,-0.30
2019-01-19T01:56:24.800Z,-0.30
2019-01-19T01:57:02.952Z,-0.30
2019-01-19T01:57:37.484Z,-0.30
2019-01-19T01:58:15.449Z,-0.30
2019-01-19T01:58:55.965Z,-0.20
2019-01-19T01:59:42.616Z,-0.20
2019-01-19T02:00:25.350Z,-0.20
2019-01-19T02:01:20.295Z,-0.20
2019-01-19T02:02:14.217Z,-0.20
2019-01-19T02:03:06.899Z,-0.20
2019-01-19T02:03:47.334Z,-0.20
2019-01-19T02:04:50.713Z,-0.20
2019-01-19T02:05:31.175Z,-0.20
2019-01-19T02:06:26.508Z,-0.20
2019-01-19T02:07:20.577Z,-0.20
2019-01-19T02:08:03.621Z,-0.20
2019-01-19T02:08:53.212Z,-0.20
2019-01-19T02:09:39.824Z,-0.20
2019-01-19T02:10:36.856Z,-0.20
2019-01-19T02:11:14.505Z,-0.20
2019-01-19T02:11:54.974Z,-0.30
2019-01-19T02:12:38.476Z,-0.30
2019-01-19T02:13:28.218Z,-0.30
2019-01-19T02:14:26.632Z,-0.30
2019-01-19T02:15:06.868Z,-0.30
2019-01-19T02:16:05.905Z,-0.30
2019-01-19T02:17:00.465Z,-0.30
2019-01-19T02:17:50.170Z,-0.20
2019-01-19T02:18:45.729Z,-0.20
2019-01-19T02:19:46.390Z,-0.30
2019-01-19T02:20:30.049Z,-0.30
2019-01-19T02:21:25.825Z,-0.30
2019-01-19T02:22:06.120Z,-0.30
2019-01-19T02:23:03.467Z,-0.30
2019-01-19T02:23:43.552Z,-0.30
2019-01-19T02:24:37.763Z,-0.30
2019-01-19T02:25:36.160Z,-0.30
2019-01-19T02:26:19.273Z,-0.30
2019-01-19T02:27:08.510Z,-0.30
2019-01-19T02:28:01.056Z,-0.30
2019-01-19T02:28:38.666Z,-0.40
2019-01-19T02:29:28.239Z,-0.40
2019-01-19T02:30:17.695Z,-0.40
2019-01-19T02:31:25.303Z,-0.40
2019-01-19T02:32:11.770Z,-0.40
2019-01-19T02:32:58.227Z,-0.40
2019-01-19T02:33:38.530Z,-0.30
2019-01-19T02:34:19.194Z,-0.40
2019-01-19T02:34:59.620Z,-0.30
2019-01-19T02:35:55.445Z,-0.30
2019-01-19T02:36:51.277Z,-0.30
2019-01-19T02:37:31.535Z,-0.30
2019-01-19T02:38:21.024Z,-0.30
2019-01-19T02:39:01.274Z,-0.30
2019-01-19T02:39:44.931Z,-0.30
2019-01-19T02:40:22.650Z,-0.30
2019-01-19T02:41:16.479Z,-0.40
2019-01-19T02:42:11.817Z,-0.40
2019-01-19T02:42:49.473Z,-0.40
2019-01-19T02:43:29.972Z,-0.40
2019-01-19T02:44:38.125Z,-0.40
2019-01-19T02:45:27.749Z,-0.30
2019-01-19T02:46:14.125Z,-0.40
2019-01-19T02:47:03.530Z,-0.40
2019-01-19T02:47:44.071Z,-0.40
2019-01-19T02:48:27.229Z,-0.40
2019-01-19T02:49:23.022Z,-0.50
2019-01-19T02:50:24.996Z,-0.50
2019-01-19T02:51:02.695Z,-0.50
2019-01-19T02:52:14.802Z,-0.50
2019-01-19T02:53:04.210Z,-0.40
2019-01-19T02:53:44.963Z,-0.40
2019-01-19T02:54:40.583Z,-0.40
2019-01-19T02:55:34.941Z,-0.40
2019-01-19T02:56:32.286Z,-0.40
2019-01-19T02:57:39.020Z,-0.50
2019-01-19T02:58:34.446Z,-0.50
2019-01-19T02:59:15.020Z,-0.50
2019-01-19T03:00:25.686Z,-0.40
2019-01-19T03:01:03.302Z,-0.50
2019-01-19T03:01:52.602Z,-0.50
2019-01-19T03:02:36.035Z,-0.50
2019-01-19T03:03:17.139Z,-0.50
2019-01-19T03:04:11.730Z,-0.50
2019-01-19T03:04:55.045Z,-0.50
2019-01-19T03:05:35.301Z,-0.50
2019-01-19T03:06:12.879Z,-0.50
2019-01-19T03:06:56.085Z,-0.50
2019-01-19T03:07:42.957Z,-0.40
2019-01-19T03:08:38.821Z,-0.40
2019-01-19T03:09:16.514Z,-0.40
2019-01-19T03:10:04.725Z,-0.40
2019-01-19T03:10:57.433Z,-0.40
2019-01-19T03:11:37.769Z,-0.50
2019-01-19T03:12:33.569Z,-0.50
2019-01-19T03:13:16.112Z,-0.40
2019-01-19T03:13:56.369Z,-0.40
2019-01-19T03:14:40.151Z,-0.50
2019-01-19T03:15:50.915Z,-0.40
2019-01-19T03:16:51.038Z,-0.40
2019-01-19T03:17:37.398Z,-0.50
2019-01-19T03:18:31.663Z,-0.50
2019-01-19T03:19:29.669Z,-0.50
2019-01-19T03:20:15.670Z,-0.40
2019-01-19T03:20:56.399Z,-0.40
2019-01-19T03:21:36.729Z,-0.40
2019-01-19T03:22:42.849Z,-0.40
2019-01-19T03:23:32.734Z,-0.40
2019-01-19T03:24:20.497Z,-0.50
2019-01-19T03:25:00.735Z,-0.50
2019-01-19T03:25:58.981Z,-0.50
2019-01-19T03:26:41.750Z,-0.50
2019-01-19T03:27:24.657Z,-0.50
2019-01-19T03:28:09.165Z,-0.50
2019-01-19T03:28:52.174Z,-0.50
2019-01-19T03:29:41.531Z,-0.50
2019-01-19T03:30:38.363Z,-0.50
2019-01-19T03:31:40.235Z,-0.50
2019-01-19T03:32:23.865Z,-0.50
2019-01-19T03:33:16.425Z,-0.50
2019-01-19T03:34:21.279Z,-0.50
2019-01-19T03:35:16.753Z,-0.50
2019-01-19T03:35:54.486Z,-0.50
2019-01-19T03:36:44.029Z,-0.50
2019-01-19T03:37:46.974Z,-0.50
2019-01-19T03:38:24.555Z,-0.50
2019-01-19T03:39:17.338Z,-0.60
2019-01-19T03:40:12.556Z,-0.50
2019-01-19T03:41:12.128Z,-0.50
2019-01-19T03:41:55.669Z,-0.50
2019-01-19T03:42:36.170Z,-0.50
2019-01-19T03:43:22.633Z,-0.50
2019-01-19T03:44:11.521Z,-0.50
2019-01-19T03:44:54.643Z,-0.60
2019-01-19T03:46:01.268Z,-0.60
2019-01-19T03:46:59.709Z,-0.60
2019-01-19T03:47:52.271Z,-0.70
2019-01-19T03:48:29.925Z,-0.80
2019-01-19T03:49:13.510Z,-0.80
2019-01-19T03:50:05.998Z,-0.80
2019-01-19T03:51:05.033Z,-0.80
2019-01-19T03:51:54.298Z,-0.70
2019-01-19T03:52:34.560Z,-0.80
2019-01-19T03:53:16.805Z,-0.80
2019-01-19T03:53:57.551Z,-0.90
2019-01-19T03:54:38.058Z,-0.90
2019-01-19T03:55:24.520Z,-0.90
2019-01-19T03:56:10.661Z,-0.90
2019-01-19T03:57:03.432Z,-0.90
2019-01-19T03:57:58.941Z,-0.90
2019-01-19T03:58:39.789Z,-1.00
2019-01-19T03:59:23.623Z,-1.00
2019-01-19T04:00:15.903Z,-1.00
2019-01-19T04:00:56.149Z,-1.00
2019-01-19T04:01:33.786Z,-1.00
2019-01-19T04:02:29.143Z,-0.90
2019-01-19T04:03:09.670Z,-0.90
2019-01-19T04:03:47.295Z,-0.90
2019-01-19T04:05:00.019Z,-0.90
2019-01-19T04:05:46.324Z,-0.90
2019-01-19T04:06:23.906Z,-0.80
2019-01-19T04:07:13.393Z,-0.90
2019-01-19T04:07:56.226Z,-0.90
2019-01-19T04:08:42.790Z,-0.90
2019-01-19T04:09:36.806Z,-0.90
2019-01-19T04:10:14.511Z,-0.90
2019-01-19T04:11:12.913Z,-0.80
2019-01-19T04:11:53.251Z,-0.80
2019-01-19T04:12:42.871Z,-0.80
2019-01-19T04:13:20.446Z,-0.80
2019-01-19T04:14:01.301Z,-0.80
2019-01-19T04:15:04.684Z,-0.70
2019-01-19T04:15:48.141Z,-0.70
2019-01-19T04:16:26.274Z,-0.70
2019-01-19T04:17:21.784Z,-0.70
2019-01-19T04:18:02.220Z,-0.70
2019-01-19T04:19:00.703Z,-0.70
2019-01-19T04:19:38.305Z,-0.80
2019-01-19T04:20:15.946Z,-0.70
2019-01-19T04:21:11.717Z,-0.80
2019-01-19T04:22:04.486Z,-0.80
2019-01-19T04:22:39.233Z,-0.80
2019-01-19T04:23:13.813Z,-0.80
2019-01-19T04:23:51.451Z,-0.80
2019-01-19T04:24:28.157Z,-0.80
2019-01-19T04:25:17.466Z,-0.80
2019-01-19T04:26:00.169Z,-0.90
2019-01-19T04:26:35.735Z,-0.90
2019-01-19T04:27:10.313Z,-0.90
2019-01-19T04:27:45.054Z,-0.90
2019-01-19T04:28:19.867Z,-0.90
2019-01-19T04:28:54.811Z,-0.90
2019-01-19T04:29:29.309Z,-0.80
2019-01-19T04:30:05.510Z,-0.80
2019-01-19T04:30:40.110Z,-0.90
2019-01-19T04:31:14.710Z,-1.00
2019-01-19T04:31:49.248Z,-0.90
2019-01-19T04:32:23.863Z,-0.90
2019-01-19T04:32:58.419Z,-0.90
2019-01-19T04:33:32.950Z,-0.90
2019-01-19T04:34:07.622Z,-0.90
2019-01-19T04:34:42.117Z,-0.90
2019-01-19T04:35:16.630Z,-0.90
2019-01-19T04:35:51.140Z,-0.90
2019-01-19T04:36:25.852Z,-0.90
2019-01-19T04:37:00.522Z,-0.90
2019-01-19T04:37:35.107Z,-0.90
2019-01-19T04:38:09.635Z,-0.90
2019-01-19T04:38:44.282Z,-0.90
2019-01-19T04:39:18.939Z,-0.90
2019-01-19T04:39:53.464Z,-0.90
2019-01-19T04:40:28.028Z,-0.90
2019-01-19T04:41:02.650Z,-0.90
2019-01-19T04:41:37.300Z,-0.90
2019-01-19T04:42:11.983Z,-0.80
2019-01-19T04:42:46.845Z,-0.80
2019-01-19T04:43:22.419Z,-0.90
2019-01-19T04:43:56.928Z,-0.90
2019-01-19T04:44:31.528Z,-0.90
2019-01-19T04:45:07.129Z,-0.90
2019-01-19T04:45:41.663Z,-0.90
2019-01-19T04:46:16.258Z,-0.90
2019-01-19T04:46:50.841Z,-0.90
2019-01-19T04:47:25.352Z,-0.90
2019-01-19T04:48:00.025Z,-0.90
2019-01-19T04:48:34.822Z,-0.90
2019-01-19T04:49:09.896Z,-0.90
2019-01-19T04:49:44.470Z,-0.90
2019-01-19T04:50:19.047Z,-0.90
2019-01-19T04:50:53.681Z,-0.90
2019-01-19T04:51:28.278Z,-0.90
2019-01-19T04:52:03.182Z,-1.00
2019-01-19T04:52:37.697Z,-0.90
2019-01-19T04:53:12.250Z,-0.90
2019-01-19T04:53:46.753Z,-0.90
2019-01-19T04:54:21.270Z,-0.90
2019-01-19T04:54:55.802Z,-0.90
2019-01-19T04:55:30.336Z,-0.90
2019-01-19T04:56:05.084Z,-0.90
2019-01-19T04:56:40.627Z,-0.90
2019-01-19T04:57:15.184Z,-0.90
2019-01-19T04:57:49.846Z,-0.90
2019-01-19T04:58:24.341Z,-0.90
2019-01-19T04:58:58.861Z,-0.90
2019-01-19T04:59:33.384Z,-0.90
2019-01-19T05:00:13.985Z,-0.90
2019-01-19T05:00:48.548Z,-0.90
2019-01-19T05:01:23.105Z,-0.90
2019-01-19T05:01:57.693Z,-0.90
2019-01-19T05:02:32.204Z,-0.90
2019-01-19T05:03:06.785Z,-0.90
2019-01-19T05:03:41.292Z,-0.90
2019-01-19T05:04:15.912Z,-0.80
2019-01-19T05:04:50.494Z,-0.80
2019-01-19T05:05:25.290Z,-0.90
2019-01-19T05:05:59.918Z,-0.80
2019-01-19T05:06:34.490Z,-0.90
2019-01-19T05:07:09.067Z,-0.80
2019-01-19T05:07:43.684Z,-0.90
2019-01-19T05:08:18.281Z,-0.90
2019-01-19T05:08:53.173Z,-0.90
2019-01-19T05:09:27.755Z,-0.90
2019-01-19T05:10:02.287Z,-0.90
2019-01-19T05:10:37.186Z,-0.90
2019-01-19T05:11:11.711Z,-0.90
2019-01-19T05:11:46.237Z,-0.90
2019-01-19T05:12:20.746Z,-0.90
2019-01-19T05:12:55.256Z,-0.90
2019-01-19T05:13:29.766Z,-0.90
2019-01-19T05:14:04.649Z,-0.90
2019-01-19T05:14:39.163Z,-0.90
2019-01-19T05:15:16.451Z,-0.90
2019-01-19T05:15:51.049Z,-0.90
2019-01-19T05:16:25.638Z,-0.90
2019-01-19T05:17:00.205Z,-0.90
2019-01-19T05:17:34.866Z,-0.90
2019-01-19T05:18:09.524Z,-0.90
2019-01-19T05:18:44.039Z,-0.90
2019-01-19T05:19:18.612Z,-0.90
2019-01-19T05:19:53.134Z,-0.90
2019-01-19T05:20:27.748Z,-0.90
2019-01-19T05:21:02.426Z,-0.90
2019-01-19T05:21:37.149Z,-0.90
2019-01-19T05:22:11.782Z,-0.90
2019-01-19T05:22:46.330Z,-0.90
2019-01-19T05:23:26.572Z,-0.90
2019-01-19T05:24:01.160Z,-0.90
2019-01-19T05:24:35.676Z,-0.90
2019-01-19T05:25:11.821Z,-0.90
2019-01-19T05:25:46.324Z,-0.90
2019-01-19T05:26:20.845Z,-0.90
2019-01-19T05:26:55.356Z,-0.90
2019-01-19T05:27:29.950Z,-0.90
2019-01-19T05:28:04.780Z,-1.00
2019-01-19T05:28:39.400Z,-1.00
2019-01-19T05:29:14.173Z,-1.00
2019-01-19T05:29:48.712Z,-1.00
2019-01-19T05:30:23.294Z,-1.00
2019-01-19T05:30:59.223Z,-1.00
2019-01-19T05:31:33.913Z,-1.00
2019-01-19T05:32:08.501Z,-1.00
2019-01-19T05:32:43.012Z,-1.00
2019-01-19T05:33:17.675Z,-1.00
2019-01-19T05:33:52.208Z,-1.00
2019-01-19T05:34:26.776Z,-1.00
2019-01-19T05:35:01.378Z,-1.00
2019-01-19T05:35:35.887Z,-1.00
2019-01-19T05:36:10.399Z,-1.00
2019-01-19T05:36:45.004Z,-1.00
2019-01-19T05:37:19.577Z,-1.00
2019-01-19T05:37:54.155Z,-1.00
2019-01-19T05:38:28.666Z,-1.00
2019-01-19T05:39:04.613Z,-1.00
2019-01-19T05:39:39.137Z,-1.00
2019-01-19T05:40:14.076Z,-0.90
2019-01-19T05:40:48.676Z,-0.90
2019-01-19T05:41:23.260Z,-0.90
2019-01-19T05:41:57.778Z,-1.00
2019-01-19T05:42:32.426Z,-0.90
2019-01-19T05:43:06.938Z,-0.90
2019-01-19T05:43:41.517Z,-1.00
2019-01-19T05:44:16.028Z,-0.90
2019-01-19T05:44:50.541Z,-1.00
2019-01-19T05:45:25.128Z,-1.00
2019-01-19T05:45:59.662Z,-1.00
2019-01-19T05:46:34.251Z,-1.00
2019-01-19T05:47:08.764Z,-1.00
2019-01-19T05:47:43.446Z,-1.00
2019-01-19T05:48:17.945Z,-1.00
2019-01-19T05:48:52.441Z,-1.00
2019-01-19T05:49:27.032Z,-1.10
2019-01-19T05:50:01.566Z,-1.00
2019-01-19T05:50:36.138Z,-1.00
2019-01-19T05:51:10.656Z,-1.00
2019-01-19T05:51:47.949Z,-1.10
2019-01-19T05:52:22.544Z,-1.00
2019-01-19T05:53:00.055Z,-1.00
2019-01-19T05:53:34.630Z,-1.10
2019-01-19T05:54:09.147Z,-1.10
2019-01-19T05:54:43.756Z,-1.10
2019-01-19T05:55:18.377Z,-1.10
2019-01-19T05:55:52.976Z,-1.10
2019-01-19T05:56:27.517Z,-1.10
2019-01-19T05:57:02.107Z,-1.10
2019-01-19T05:57:37.050Z,-1.10
2019-01-19T05:58:11.588Z,-1.10
2019-01-19T05:58:46.094Z,-1.20
2019-01-19T05:59:20.607Z,-1.20
2019-01-19T05:59:55.202Z,-1.20
2019-01-19T06:00:31.360Z,-1.10
2019-01-19T06:01:05.871Z,-1.10
2019-01-19T06:01:40.474Z,-1.20
2019-01-19T06:02:14.997Z,-1.20
2019-01-19T06:02:49.584Z,-1.30
2019-01-19T06:03:24.103Z,-1.30
2019-01-19T06:03:58.722Z,-1.40
2019-01-19T06:04:33.240Z,-1.40
2019-01-19T06:05:08.429Z,-1.40
2019-01-19T06:05:43.101Z,-1.50
2019-01-19T06:06:17.807Z,-1.50
2019-01-19T06:06:52.315Z,-1.50
2019-01-19T06:07:26.837Z,-1.50
2019-01-19T06:08:01.437Z,-1.50
2019-01-19T06:08:35.936Z,-1.40
2019-01-19T06:09:10.462Z,-1.40
2019-01-19T06:09:45.078Z,-1.50
2019-01-19T06:10:19.929Z,-1.40
2019-01-19T06:10:54.517Z,-1.40
2019-01-19T06:11:29.064Z,-1.40
2019-01-19T06:12:03.585Z,-1.50
2019-01-19T06:12:38.174Z,-1.50
2019-01-19T06:13:12.792Z,-1.50
2019-01-19T06:13:47.312Z,-1.50
2019-01-19T06:14:21.831Z,-1.50
2019-01-19T06:14:56.425Z,-1.50
2019-01-19T06:15:30.957Z,-1.60
2019-01-19T06:16:05.539Z,-1.60
2019-01-19T06:16:40.066Z,-1.50
2019-01-19T06:17:14.610Z,-1.50
2019-01-19T06:17:49.295Z,-1.40
2019-01-19T06:18:23.833Z,-1.40
2019-01-19T06:18:58.613Z,-1.40
2019-01-19T06:19:33.208Z,-1.40
2019-01-19T06:20:11.136Z,-1.40
2019-01-19T06:20:45.660Z,-1.40
2019-01-19T06:21:21.680Z,-1.40
2019-01-19T06:21:57.409Z,-1.40
2019-01-19T06:22:31.929Z,-1.40
2019-01-19T06:23:06.501Z,-1.30
2019-01-19T06:23:41.027Z,-1.40
2019-01-19T06:24:15.541Z,-1.40
2019-01-19T06:24:50.126Z,-1.40
2019-01-19T06:25:24.716Z,-1.40
2019-01-19T06:25:59.226Z,-1.50
2019-01-19T06:26:34.074Z,-1.40
2019-01-19T06:27:08.696Z,-1.40
2019-01-19T06:27:43.278Z,-1.40
2019-01-19T06:28:17.793Z,-1.30
2019-01-19T06:28:52.338Z,-1.30
2019-01-19T06:29:27.233Z,-1.40
2019-01-19T06:30:01.741Z,-1.40
2019-01-19T06:30:36.278Z,-1.30
2019-01-19T06:31:10.859Z,-1.40
2019-01-19T06:31:45.572Z,-1.40
2019-01-19T06:32:20.110Z,-1.40
2019-01-19T06:32:54.693Z,-1.40
2019-01-19T06:33:29.281Z,-1.40
2019-01-19T06:34:03.871Z,-1.40
2019-01-19T06:34:38.387Z,-1.40
2019-01-19T06:35:12.955Z,-1.40
2019-01-19T06:35:47.462Z,-1.50
2019-01-19T06:36:21.990Z,-1.50
2019-01-19T06:36:59.234Z,-1.50
2019-01-19T06:37:33.748Z,-1.50
2019-01-19T06:38:08.331Z,-1.50
2019-01-19T06:38:42.864Z,-1.50
2019-01-19T06:39:17.388Z,-1.50
2019-01-19T06:39:52.015Z,-1.40
2019-01-19T06:40:26.605Z,-1.40
2019-01-19T06:41:01.197Z,-1.40
2019-01-19T06:41:35.719Z,-1.40
2019-01-19T06:42:10.297Z,-1.40
2019-01-19T06:42:45.071Z,-1.30
2019-01-19T06:43:19.583Z,-1.30
2019-01-19T06:43:54.084Z,-1.30
2019-01-19T06:44:28.699Z,-1.20
2019-01-19T06:45:03.466Z,-1.20
2019-01-19T06:45:37.968Z,-1.20
2019-01-19T06:46:12.529Z,-1.20
2019-01-19T06:46:47.128Z,-1.20
2019-01-19T06:47:21.727Z,-1.20
2019-01-19T06:47:56.250Z,-1.10
2019-01-19T06:48:30.859Z,-1.10
2019-01-19T06:49:05.390Z,-1.10
2019-01-19T06:49:39.898Z,-1.10
2019-01-19T06:50:16.567Z,-1.10
2019-01-19T06:50:51.187Z,-1.10
2019-01-19T06:51:25.762Z,-1.10
2019-01-19T06:52:00.350Z,-1.10
2019-01-19T06:52:40.811Z,-1.20
2019-01-19T06:53:15.316Z,-1.20
2019-01-19T06:53:49.903Z,-1.30
2019-01-19T06:54:24.504Z,-1.20
2019-01-19T06:54:59.078Z,-1.20
2019-01-19T06:55:33.595Z,-1.20
2019-01-19T06:56:08.476Z,-1.10
2019-01-19T06:56:43.074Z,-1.10
2019-01-19T06:57:17.665Z,-1.10
2019-01-19T06:57:52.182Z,-1.00
2019-01-19T06:58:27.035Z,-0.90
2019-01-19T06:59:01.604Z,-0.90
2019-01-19T06:59:36.152Z,-0.90
2019-01-19T07:00:13.707Z,-0.90
2019-01-19T07:00:48.212Z,-0.90
2019-01-19T07:01:22.741Z,-0.90
2019-01-19T07:01:57.360Z,-0.90
2019-01-19T07:02:31.880Z,-0.90
2019-01-19T07:03:06.505Z,-0.90
2019-01-19T07:03:41.026Z,-0.90
2019-01-19T07:04:15.561Z,-1.00
2019-01-19T07:04:50.222Z,-1.00
2019-01-19T07:05:30.359Z,-1.10
2019-01-19T07:06:05.131Z,-1.20
2019-01-19T07:06:39.722Z,-1.20
2019-01-19T07:07:14.224Z,-1.20
2019-01-19T07:07:48.751Z,-1.30
2019-01-19T07:08:23.368Z,-1.30
2019-01-19T07:08:57.945Z,-1.30
2019-01-19T07:09:32.514Z,-1.20
2019-01-19T07:10:10.124Z,-1.20
2019-01-19T07:10:44.716Z,-1.20
2019-01-19T07:11:19.330Z,-1.20
2019-01-19T07:11:53.939Z,-1.10
2019-01-19T07:12:28.473Z,-1.20
2019-01-19T07:13:03.581Z,-1.20
2019-01-19T07:13:40.843Z,-1.20
2019-01-19T07:14:15.348Z,-1.20
2019-01-19T07:14:49.859Z,-1.10
2019-01-19T07:15:24.423Z,-1.10
2019-01-19T07:15:58.976Z,-1.10
2019-01-19T07:16:33.585Z,-1.20
2019-01-19T07:17:08.162Z,-1.20
2019-01-19T07:17:42.947Z,-1.20
2019-01-19T07:18:17.554Z,-1.20
2019-01-19T07:18:52.664Z,-1.20
2019-01-19T07:19:27.237Z,-1.10
2019-01-19T07:20:01.831Z,-1.10
2019-01-19T07:20:36.412Z,-1.10
2019-01-19T07:21:10.945Z,-1.10
2019-01-19T07:21:45.628Z,-1.10
2019-01-19T07:22:20.221Z,-1.10
2019-01-19T07:22:54.907Z,-1.10
2019-01-19T07:23:29.488Z,-1.10
2019-01-19T07:24:04.001Z,-1.10
2019-01-19T07:24:38.512Z,-1.10
2019-01-19T07:25:13.514Z,-1.10
2019-01-19T07:25:48.196Z,-1.10
2019-01-19T07:26:22.755Z,-1.10
2019-01-19T07:26:57.344Z,-1.10
2019-01-19T07:27:31.889Z,-1.00
2019-01-19T07:28:06.463Z,-1.00
2019-01-19T07:28:41.048Z,-1.00
2019-01-19T07:29:15.557Z,-1.00
2019-01-19T07:29:50.092Z,-1.00
2019-01-19T07:30:24.768Z,-0.90
2019-01-19T07:30:59.401Z,-0.90
2019-01-19T07:31:33.984Z,-0.90
2019-01-19T07:32:08.493Z,-0.90
2019-01-19T07:32:43.152Z,-0.90
2019-01-19T07:33:17.693Z,-0.90
2019-01-19T07:33:52.223Z,-0.90
2019-01-19T07:34:26.806Z,-0.90
2019-01-19T07:35:01.413Z,-0.90
2019-01-19T07:35:36.024Z,-0.80
2019-01-19T07:36:10.703Z,-0.80
2019-01-19T07:36:45.251Z,-0.80
2019-01-19T07:37:19.930Z,-0.80
2019-01-19T07:37:54.551Z,-0.70
2019-01-19T07:38:29.066Z,-0.70
2019-01-19T07:39:05.225Z,-0.70
2019-01-19T07:39:39.821Z,-0.70
2019-01-19T07:40:16.920Z,-0.70
2019-01-19T07:40:51.525Z,-0.70
2019-01-19T07:41:26.214Z,-0.80
2019-01-19T07:42:00.741Z,-0.90
2019-01-19T07:42:36.128Z,-1.00
2019-01-19T07:43:11.683Z,-1.00
2019-01-19T07:43:48.966Z,-1.10
2019-01-19T07:44:23.493Z,-1.10
2019-01-19T07:44:58.079Z,-1.10
2019-01-19T07:45:32.705Z,-1.10
2019-01-19T07:46:08.353Z,-1.00
2019-01-19T07:46:42.938Z,-1.00
2019-01-19T07:47:17.624Z,-1.00
2019-01-19T07:47:52.213Z,-0.90
2019-01-19T07:48:26.849Z,-0.90
2019-01-19T07:49:01.484Z,-0.90
2019-01-19T07:49:38.774Z,-0.90
2019-01-19T07:50:17.958Z,-0.90
2019-01-19T07:50:52.465Z,-0.90
2019-01-19T07:51:27.002Z,-1.00
2019-01-19T07:52:01.603Z,-1.00
2019-01-19T07:52:36.180Z,-1.00
2019-01-19T07:53:10.715Z,-1.00
2019-01-19T07:53:45.299Z,-1.10
2019-01-19T07:54:19.824Z,-1.10
2019-01-19T07:54:54.410Z,-1.00
2019-01-19T07:55:29.260Z,-1.00
2019-01-19T07:56:04.000Z,-1.00
2019-01-19T07:56:38.595Z,-0.90
2019-01-19T07:57:13.179Z,-0.90
2019-01-19T07:57:47.922Z,-0.90
2019-01-19T07:58:22.452Z,-0.80
2019-01-19T07:58:57.032Z,-0.90
2019-01-19T07:59:31.634Z,-0.90
2019-01-19T08:00:17.601Z,-0.90
2019-01-19T08:00:52.382Z,-0.90
2019-01-19T08:01:32.661Z,-0.90
2019-01-19T08:02:07.507Z,-0.90
2019-01-19T08:02:42.088Z,-0.90
2019-01-19T08:03:16.594Z,-0.80
2019-01-19T08:03:51.109Z,-1.00
2019-01-19T08:04:26.923Z,-0.90
2019-01-19T08:05:01.456Z,-0.90
2019-01-19T08:05:36.029Z,-0.90
2019-01-19T08:06:10.678Z,-0.90
2019-01-19T08:06:45.228Z,-0.90
2019-01-19T08:07:21.129Z,-0.90
2019-01-19T08:07:55.947Z,-0.90
2019-01-19T08:08:30.454Z,-0.90
2019-01-19T08:09:06.985Z,-0.80
2019-01-19T08:09:41.567Z,-0.80
2019-01-19T08:10:20.723Z,-0.80
2019-01-19T08:10:55.290Z,-0.70
2019-01-19T08:11:29.808Z,-0.70
2019-01-19T08:12:04.490Z,-0.70
2019-01-19T08:12:39.100Z,-0.60
2019-01-19T08:13:13.617Z,-0.60
2019-01-19T08:13:48.545Z,-0.60
2019-01-19T08:14:23.056Z,-0.60
2019-01-19T08:14:57.597Z,-0.50
2019-01-19T08:15:32.350Z,-0.50
2019-01-19T08:16:06.941Z,-0.50
2019-01-19T08:16:41.538Z,-0.50
2019-01-19T08:17:16.078Z,-0.50
2019-01-19T08:17:50.689Z,-0.50
2019-01-19T08:18:25.202Z,-0.40
2019-01-19T08:18:59.739Z,-0.40
2019-01-19T08:19:34.363Z,-0.30
2019-01-19T08:20:12.494Z,-0.30
2019-01-19T08:20:47.027Z,-0.40
2019-01-19T08:21:21.604Z,-0.40
2019-01-19T08:21:56.243Z,-0.40
2019-01-19T08:22:30.795Z,-0.30
2019-01-19T08:23:05.479Z,-0.30
2019-01-19T08:23:40.112Z,-0.30
2019-01-19T08:24:14.650Z,-0.30
2019-01-19T08:24:49.245Z,-0.30
2019-01-19T08:25:23.778Z,-0.40
2019-01-19T08:25:58.592Z,-0.40
2019-01-19T08:26:33.172Z,-0.30
2019-01-19T08:27:07.676Z,-0.30
2019-01-19T08:27:42.187Z,-0.30
2019-01-19T08:28:16.728Z,-0.20
2019-01-19T08:28:51.327Z,-0.10
2019-01-19T08:29:25.851Z,-0.10
2019-01-19T08:30:00.988Z,0.00
2019-01-19T08:30:35.495Z,0.00
2019-01-19T08:31:10.102Z,-0.10
2019-01-19T08:31:44.621Z,-0.10
2019-01-19T08:32:19.145Z,-0.20
2019-01-19T08:32:53.826Z,-0.20
2019-01-19T08:33:28.405Z,-0.30
2019-01-19T08:34:03.250Z,-0.30
2019-01-19T08:34:37.871Z,-0.40
2019-01-19T08:35:13.799Z,-0.40
2019-01-19T08:35:48.483Z,-0.30
2019-01-19T08:36:23.001Z,-0.30
2019-01-19T08:36:57.508Z,-0.20
2019-01-19T08:37:32.041Z,-0.20
2019-01-19T08:38:06.548Z,-0.10
2019-01-19T08:38:41.127Z,-0.20
2019-01-19T08:39:16.736Z,-0.10
2019-01-19T08:39:51.412Z,-0.10
2019-01-19T08:40:28.807Z,-0.10
2019-01-19T08:41:03.386Z,-0.10
2019-01-19T08:41:37.916Z,0.00
2019-01-19T08:42:15.401Z,0.00